Time;durP1;ratioP1;P1;durP2;ratioP2;P2;SDS_P1;SDS_P2;PMS_P1;PMS_P2;Temp;Humidity;BMP_temperature;BMP_pressure;BME280_temperature;BME280_humidity;BME280_pressure;Samples;Min_cycle;Max_cycle;Signal;HPM_P1;HPM_P2
2023/09/26 00:02:11;;;;;;;2.35;2.13;;;;;;;;;;5002435;28;20488;-53
2023/09/26 00:04:37;;;;;;;2.50;2.10;;;;;;;;;;4993324;28;20285;-53
2023/09/26 00:07:03;;;;;;;3.75;2.13;;;;;;;;;;4998067;28;20194;-54
2023/09/26 00:09:30;;;;;;;4.22;2.30;;;;;;;;;;4993605;28;20584;-54
2023/09/26 00:11:56;;;;;;;3.92;2.33;;;;;;;;;;4992941;28;20408;-54
2023/09/26 00:14:22;;;;;;;4.22;2.08;;;;;;;;;;5000925;28;20197;-53
2023/09/26 00:16:48;;;;;;;2.38;2.10;;;;;;;;;;4988107;28;20209;-53
2023/09/26 00:19:14;;;;;;;2.30;2.10;;;;;;;;;;5002650;28;20223;-53
2023/09/26 00:21:41;;;;;;;2.13;2.00;;;;;;;;;;4993434;28;20229;-53
2023/09/26 00:24:07;;;;;;;2.85;2.00;;;;;;;;;;4987952;28;20197;-54
2023/09/26 00:26:33;;;;;;;2.22;2.03;;;;;;;;;;4997406;28;20216;-54
2023/09/26 00:28:59;;;;;;;2.17;1.95;;;;;;;;;;5003929;28;20228;-54
2023/09/26 00:31:25;;;;;;;2.88;2.17;;;;;;;;;;5004460;28;20190;-53
2023/09/26 00:33:51;;;;;;;3.05;2.15;;;;;;;;;;4989485;28;20209;-53
2023/09/26 00:36:17;;;;;;;2.65;2.28;;;;;;;;;;4989258;28;20261;-53
2023/09/26 00:38:43;;;;;;;2.30;2.10;;;;;;;;;;4994391;28;20483;-53
2023/09/26 00:41:10;;;;;;;4.65;2.25;;;;;;;;;;4995622;28;20194;-53
2023/09/26 00:43:36;;;;;;;2.05;1.95;;;;;;;;;;4993031;28;20174;-53
2023/09/26 00:46:06;;;;;;;1.80;1.70;;;;;;;;;;4994154;28;20268;-54
2023/09/26 00:48:33;;;;;;;2.05;1.80;;;;;;;;;;5005441;28;20223;-54
2023/09/26 00:50:59;;;;;;;2.97;2.30;;;;;;;;;;4992534;28;20235;-53
2023/09/26 00:53:26;;;;;;;3.45;1.83;;;;;;;;;;4997312;28;20215;-54
2023/09/26 00:55:54;;;;;;;2.72;1.95;;;;;;;;;;4993197;28;20213;-54
2023/09/26 00:58:22;;;;;;;1.98;1.88;;;;;;;;;;5005604;28;20176;-54
2023/09/26 01:00:53;;;;;;;2.05;1.88;;;;;;;;;;5008718;28;20185;-54
2023/09/26 01:03:19;;;;;;;2.88;1.80;;;;;;;;;;4986583;28;20201;-53
2023/09/26 01:05:45;;;;;;;2.75;1.75;;;;;;;;;;5001975;28;20208;-53
2023/09/26 01:08:11;;;;;;;2.17;1.77;;;;;;;;;;5004168;28;20259;-53
2023/09/26 01:10:37;;;;;;;2.10;1.90;;;;;;;;;;4990900;28;20253;-53
2023/09/26 01:13:04;;;;;;;2.78;2.13;;;;;;;;;;4996143;28;20201;-54
2023/09/26 01:15:36;;;;;;;2.10;2.00;;;;;;;;;;4997814;28;20214;-53
2023/09/26 01:18:03;;;;;;;2.83;1.83;;;;;;;;;;5005290;28;20207;-53
2023/09/26 01:20:29;;;;;;;2.20;2.00;;;;;;;;;;5009423;28;20172;-53
2023/09/26 01:22:55;;;;;;;1.95;1.85;;;;;;;;;;4997791;28;20194;-54
2023/09/26 01:25:23;;;;;;;2.55;1.83;;;;;;;;;;5003977;28;20588;-52
2023/09/26 01:27:48;;;;;;;2.40;1.92;;;;;;;;;;4994357;28;20188;-53
2023/09/26 01:30:15;;;;;;;2.05;1.85;;;;;;;;;;5006187;28;20602;-53
2023/09/26 01:32:41;;;;;;;2.30;2.10;;;;;;;;;;5007973;28;20227;-53
2023/09/26 01:35:07;;;;;;;2.67;1.88;;;;;;;;;;5004469;28;20591;-53
2023/09/26 01:37:33;;;;;;;2.63;1.90;;;;;;;;;;5001341;28;20264;-53
2023/09/26 01:39:59;;;;;;;2.00;1.80;;;;;;;;;;5011676;28;20255;-52
2023/09/26 01:42:25;;;;;;;2.67;1.80;;;;;;;;;;4991369;28;20272;-53
2023/09/26 01:44:51;;;;;;;2.00;1.85;;;;;;;;;;5003137;28;20777;-53
2023/09/26 01:47:25;;;;;;;2.05;1.92;;;;;;;;;;5001079;28;20215;-53
2023/09/26 01:49:51;;;;;;;2.03;1.85;;;;;;;;;;4995244;28;20194;-53
2023/09/26 01:52:17;;;;;;;2.08;1.90;;;;;;;;;;5005627;28;20188;-54
2023/09/26 01:54:43;;;;;;;3.47;2.42;;;;;;;;;;5007993;28;20204;-53
2023/09/26 01:57:09;;;;;;;2.28;1.88;;;;;;;;;;4994882;28;20185;-54
2023/09/26 01:59:35;;;;;;;1.73;1.63;;;;;;;;;;4999902;28;20189;-51
2023/09/26 02:02:03;;;;;;;2.78;1.85;;;;;;;;;;4992024;28;20572;-51
2023/09/26 02:04:29;;;;;;;2.35;1.77;;;;;;;;;;5002114;28;20189;-53
2023/09/26 02:06:55;;;;;;;2.67;1.80;;;;;;;;;;4999858;28;20454;-53
2023/09/26 02:09:24;;;;;;;1.90;1.75;;;;;;;;;;5007615;28;20177;-53
2023/09/26 02:11:50;;;;;;;2.10;1.63;;;;;;;;;;4994355;28;21006;-52
2023/09/26 02:14:16;;;;;;;2.42;2.20;;;;;;;;;;5001006;28;20215;-53
2023/09/26 02:16:42;;;;;;;2.08;1.70;;;;;;;;;;5015812;28;20184;-53
2023/09/26 02:19:08;;;;;;;5.05;1.85;;;;;;;;;;4999070;28;20184;-53
2023/09/26 02:21:34;;;;;;;1.85;1.70;;;;;;;;;;5003939;28;20248;-53
2023/09/26 02:24:00;;;;;;;2.15;1.95;;;;;;;;;;4989375;28;20397;-53
2023/09/26 02:26:26;;;;;;;1.90;1.60;;;;;;;;;;4996004;28;20685;-53
2023/09/26 02:28:52;;;;;;;2.17;1.77;;;;;;;;;;4998190;28;20185;-53
2023/09/26 02:31:18;;;;;;;4.20;2.08;;;;;;;;;;5009176;28;20306;-53
2023/09/26 02:33:45;;;;;;;2.42;1.88;;;;;;;;;;4992539;28;20264;-53
2023/09/26 02:36:11;;;;;;;2.03;1.77;;;;;;;;;;5005280;28;20204;-53
2023/09/26 02:38:37;;;;;;;1.70;1.60;;;;;;;;;;4995779;28;20216;-53
2023/09/26 02:41:02;;;;;;;2.38;1.75;;;;;;;;;;5005565;28;20591;-53
2023/09/26 02:43:28;;;;;;;2.08;1.85;;;;;;;;;;5004345;28;20240;-53
2023/09/26 02:45:54;;;;;;;3.35;1.90;;;;;;;;;;4991117;28;20292;-53
2023/09/26 02:48:20;;;;;;;3.65;1.90;;;;;;;;;;4996163;28;20263;-53
2023/09/26 02:50:46;;;;;;;2.13;2.00;;;;;;;;;;4996103;28;20565;-53
2023/09/26 02:53:12;;;;;;;2.70;2.35;;;;;;;;;;4993535;28;20904;-53
2023/09/26 02:55:41;;;;;;;2.38;2.17;;;;;;;;;;4991466;28;20205;-53
2023/09/26 02:58:07;;;;;;;2.33;2.13;;;;;;;;;;4996193;28;20455;-51
2023/09/26 03:00:33;;;;;;;2.33;2.13;;;;;;;;;;4984602;28;20224;-53
2023/09/26 03:03:00;;;;;;;2.22;2.03;;;;;;;;;;4988375;28;20548;-53
2023/09/26 03:05:26;;;;;;;2.00;1.90;;;;;;;;;;5009928;28;20173;-53
2023/09/26 03:07:52;;;;;;;3.97;2.20;;;;;;;;;;4995237;28;20225;-53
2023/09/26 03:10:18;;;;;;;2.20;1.92;;;;;;;;;;5006550;28;20243;-53
2023/09/26 03:12:48;;;;;;;3.42;2.20;;;;;;;;;;4994238;28;20272;-53
2023/09/26 03:15:14;;;;;;;4.10;1.98;;;;;;;;;;5006771;28;20209;-54
2023/09/26 03:17:40;;;;;;;3.05;1.95;;;;;;;;;;5000707;28;20518;-53
2023/09/26 03:20:08;;;;;;;2.00;1.73;;;;;;;;;;4991856;28;20265;-55
2023/09/26 03:22:34;;;;;;;1.73;1.63;;;;;;;;;;5008879;28;20592;-53
2023/09/26 03:25:00;;;;;;;2.05;1.85;;;;;;;;;;5009570;28;20310;-53
2023/09/26 03:27:26;;;;;;;3.50;1.90;;;;;;;;;;5010199;28;20176;-53
2023/09/26 03:29:52;;;;;;;1.70;1.60;;;;;;;;;;5011820;28;20425;-53
2023/09/26 03:32:18;;;;;;;4.40;2.20;;;;;;;;;;4994470;28;20556;-53
2023/09/26 03:34:44;;;;;;;2.15;1.92;;;;;;;;;;4992638;28;20208;-53
2023/09/26 03:37:10;;;;;;;1.88;1.77;;;;;;;;;;5009219;28;20185;-53
2023/09/26 03:39:36;;;;;;;3.25;2.10;;;;;;;;;;5013132;28;20184;-53
2023/09/26 03:42:02;;;;;;;1.80;1.70;;;;;;;;;;4997725;28;20189;-53
2023/09/26 03:44:28;;;;;;;2.53;2.15;;;;;;;;;;5002009;28;20195;-52
2023/09/26 03:46:54;;;;;;;3.92;2.10;;;;;;;;;;5008742;28;20279;-52
2023/09/26 03:49:20;;;;;;;3.85;2.42;;;;;;;;;;5005529;28;20450;-52
2023/09/26 03:51:46;;;;;;;4.70;2.10;;;;;;;;;;4997313;28;20192;-52
2023/09/26 03:54:11;;;;;;;6.22;2.30;;;;;;;;;;4996191;28;20209;-52
2023/09/26 03:56:37;;;;;;;4.22;2.40;;;;;;;;;;5003588;28;20191;-52
2023/09/26 03:59:03;;;;;;;6.15;2.58;;;;;;;;;;4999359;28;20173;-52
2023/09/26 04:01:29;;;;;;;5.15;2.53;;;;;;;;;;4991465;28;20212;-52
2023/09/26 04:03:55;;;;;;;6.35;2.17;;;;;;;;;;5002318;28;20579;-52
2023/09/26 04:06:21;;;;;;;6.47;2.35;;;;;;;;;;4995636;28;20185;-52
2023/09/26 04:08:47;;;;;;;7.15;2.33;;;;;;;;;;4997631;28;20221;-52
2023/09/26 04:11:16;;;;;;;3.78;2.47;;;;;;;;;;5015659;28;20181;-52
2023/09/26 04:13:42;;;;;;;11.32;3.85;;;;;;;;;;5009020;28;20184;-52
2023/09/26 04:16:09;;;;;;;7.93;2.60;;;;;;;;;;5003766;28;20205;-52
2023/09/26 04:18:35;;;;;;;4.78;2.22;;;;;;;;;;5015015;28;20200;-52
2023/09/26 04:21:02;;;;;;;6.35;2.53;;;;;;;;;;4989705;28;20217;-50
2023/09/26 04:23:28;;;;;;;6.72;2.80;;;;;;;;;;4997625;28;20190;-50
2023/09/26 04:25:54;;;;;;;7.60;2.55;;;;;;;;;;4998588;28;20445;-51
2023/09/26 04:28:20;;;;;;;5.55;2.47;;;;;;;;;;5009877;28;20225;-53
2023/09/26 04:30:46;;;;;;;8.57;2.42;;;;;;;;;;4999644;28;20188;-52
2023/09/26 04:33:12;;;;;;;8.63;2.70;;;;;;;;;;4990928;28;20553;-52
2023/09/26 04:35:37;;;;;;;8.68;2.90;;;;;;;;;;4994698;28;20208;-52
2023/09/26 04:38:04;;;;;;;12.35;2.83;;;;;;;;;;4995507;28;20182;-52
2023/09/26 04:40:30;;;;;;;13.40;3.97;;;;;;;;;;4998676;28;20256;-52
2023/09/26 04:43:00;;;;;;;8.18;2.67;;;;;;;;;;4998124;28;20518;-50
2023/09/26 04:45:29;;;;;;;3.92;2.40;;;;;;;;;;5001459;28;20189;-50
2023/09/26 04:47:57;;;;;;;6.28;3.15;;;;;;;;;;4994315;28;20177;-53
2023/09/26 04:50:23;;;;;;;4.00;2.92;;;;;;;;;;5006461;28;20236;-52
2023/09/26 04:52:49;;;;;;;4.70;2.42;;;;;;;;;;4993753;28;20189;-54
2023/09/26 04:55:15;;;;;;;7.28;2.40;;;;;;;;;;5007197;28;20215;-55
2023/09/26 04:57:42;;;;;;;7.95;2.90;;;;;;;;;;5001629;28;20511;-51
2023/09/26 05:00:09;;;;;;;5.65;3.47;;;;;;;;;;5002202;28;20173;-52
2023/09/26 05:02:35;;;;;;;7.30;2.83;;;;;;;;;;4989230;28;20178;-51
2023/09/26 05:05:03;;;;;;;9.38;3.13;;;;;;;;;;5001073;28;20241;-51
2023/09/26 05:07:30;;;;;;;7.93;2.90;;;;;;;;;;5004941;28;20572;-48
2023/09/26 05:09:57;;;;;;;7.38;3.38;;;;;;;;;;5001430;28;20550;-47
2023/09/26 05:12:23;;;;;;;7.07;2.80;;;;;;;;;;4997837;28;20575;-50
2023/09/26 05:14:48;;;;;;;14.90;3.58;;;;;;;;;;4998917;28;20208;-50
2023/09/26 05:17:14;;;;;;;4.93;3.13;;;;;;;;;;5000184;28;20711;-49
2023/09/26 05:19:40;;;;;;;8.65;4.63;;;;;;;;;;4997585;28;20190;-46
2023/09/26 05:22:06;;;;;;;7.90;3.15;;;;;;;;;;5004607;28;20199;-46
2023/09/26 05:24:32;;;;;;;6.40;3.13;;;;;;;;;;5004673;28;20235;-47
2023/09/26 05:26:58;;;;;;;6.80;3.35;;;;;;;;;;5004009;28;20188;-47
2023/09/26 05:29:24;;;;;;;5.07;3.00;;;;;;;;;;5014205;28;20180;-47
2023/09/26 05:31:50;;;;;;;5.82;2.80;;;;;;;;;;5011950;28;20861;-47
2023/09/26 05:34:16;;;;;;;8.30;2.90;;;;;;;;;;5006094;28;20205;-47
2023/09/26 05:36:42;;;;;;;7.53;2.83;;;;;;;;;;5007212;28;20196;-47
2023/09/26 05:39:08;;;;;;;4.57;2.72;;;;;;;;;;5004594;28;20173;-47
2023/09/26 05:41:34;;;;;;;8.60;2.97;;;;;;;;;;4996836;28;20195;-47
2023/09/26 05:44:00;;;;;;;3.70;2.50;;;;;;;;;;4995692;28;20212;-47
2023/09/26 05:46:26;;;;;;;6.53;2.53;;;;;;;;;;4998496;28;20480;-47
2023/09/26 05:48:52;;;;;;;4.07;2.80;;;;;;;;;;4998965;28;20177;-48
2023/09/26 05:51:18;;;;;;;4.47;2.50;;;;;;;;;;5010611;28;20180;-47
2023/09/26 05:53:44;;;;;;;2.53;2.30;;;;;;;;;;5002146;28;20540;-47
2023/09/26 05:56:10;;;;;;;2.95;2.60;;;;;;;;;;4997817;28;20259;-47
2023/09/26 05:58:36;;;;;;;5.47;2.42;;;;;;;;;;4996605;28;20181;-48
2023/09/26 06:01:08;;;;;;;2.38;2.17;;;;;;;;;;4990379;28;20177;-47
2023/09/26 06:03:34;;;;;;;4.88;2.45;;;;;;;;;;4992044;28;20256;-47
2023/09/26 06:06:04;;;;;;;3.90;2.45;;;;;;;;;;5001195;28;20189;-47
2023/09/26 06:08:30;;;;;;;4.80;2.20;;;;;;;;;;4992696;28;20206;-47
2023/09/26 06:10:56;;;;;;;4.20;2.17;;;;;;;;;;5005287;28;20189;-47
2023/09/26 06:13:22;;;;;;;3.33;2.33;;;;;;;;;;4998076;28;20197;-48
2023/09/26 06:15:48;;;;;;;4.70;2.60;;;;;;;;;;4999327;28;20271;-47
2023/09/26 06:18:14;;;;;;;2.30;2.10;;;;;;;;;;4994283;28;20186;-47
2023/09/26 06:20:44;;;;;;;4.30;2.22;;;;;;;;;;4996203;28;20181;-47
2023/09/26 06:23:09;;;;;;;2.90;2.20;;;;;;;;;;4995232;28;20200;-47
2023/09/26 06:25:35;;;;;;;2.42;2.22;;;;;;;;;;5008190;28;20215;-47
2023/09/26 06:28:02;;;;;;;2.50;2.20;;;;;;;;;;5005316;28;20608;-47
2023/09/26 06:30:28;;;;;;;3.80;2.33;;;;;;;;;;5000827;28;20188;-48
2023/09/26 06:32:54;;;;;;;4.75;2.78;;;;;;;;;;4999595;28;20570;-47
2023/09/26 06:35:20;;;;;;;2.25;1.98;;;;;;;;;;4998921;28;20216;-47
2023/09/26 06:37:46;;;;;;;3.55;1.90;;;;;;;;;;4994924;28;20235;-47
2023/09/26 06:40:12;;;;;;;4.13;1.95;;;;;;;;;;4989222;28;20470;-47
2023/09/26 06:42:38;;;;;;;4.90;2.70;;;;;;;;;;4994848;28;20173;-47
2023/09/26 06:45:04;;;;;;;2.58;2.38;;;;;;;;;;4990547;28;20269;-47
2023/09/26 06:47:33;;;;;;;3.13;2.45;;;;;;;;;;5003858;28;20580;-47
2023/09/26 06:49:59;;;;;;;3.88;2.00;;;;;;;;;;4991049;28;20194;-47
2023/09/26 06:52:25;;;;;;;2.65;2.10;;;;;;;;;;4985366;28;20188;-47
2023/09/26 06:54:51;;;;;;;1.98;1.88;;;;;;;;;;4989869;28;20292;-47
2023/09/26 06:57:26;;;;;;;3.90;2.28;;;;;;;;;;4992542;28;20265;-47
2023/09/26 06:59:52;;;;;;;5.90;2.20;;;;;;;;;;5007588;28;20176;-47
2023/09/26 07:02:18;;;;;;;3.00;1.90;;;;;;;;;;4995176;28;20170;-47
2023/09/26 07:04:44;;;;;;;2.53;2.00;;;;;;;;;;4992148;28;20189;-48
2023/09/26 07:07:10;;;;;;;2.17;1.98;;;;;;;;;;5002529;28;20565;-47
2023/09/26 07:09:36;;;;;;;3.42;2.28;;;;;;;;;;4998352;28;20363;-47
2023/09/26 07:12:03;;;;;;;2.90;2.00;;;;;;;;;;4994362;28;20198;-47
2023/09/26 07:14:32;;;;;;;3.38;2.65;;;;;;;;;;4997042;28;20193;-47
2023/09/26 07:16:58;;;;;;;2.50;2.30;;;;;;;;;;5000626;28;20181;-47
2023/09/26 07:19:24;;;;;;;4.63;2.80;;;;;;;;;;4994027;28;20184;-46
2023/09/26 07:21:50;;;;;;;4.53;2.60;;;;;;;;;;5005282;28;20586;-45
2023/09/26 07:24:16;;;;;;;2.80;2.33;;;;;;;;;;5000438;28;20197;-47
2023/09/26 07:26:42;;;;;;;3.80;2.75;;;;;;;;;;5008001;28;20192;-47
2023/09/26 07:29:08;;;;;;;6.80;2.30;;;;;;;;;;4992860;28;20192;-47
2023/09/26 07:31:35;;;;;;;3.33;2.58;;;;;;;;;;5005703;28;20192;-48
2023/09/26 07:34:01;;;;;;;4.93;2.57;;;;;;;;;;5011971;28;20216;-48
2023/09/26 07:36:27;;;;;;;4.10;2.45;;;;;;;;;;5004428;28;20211;-47
2023/09/26 07:38:53;;;;;;;2.25;2.08;;;;;;;;;;4998639;28;20211;-47
2023/09/26 07:41:19;;;;;;;2.45;2.25;;;;;;;;;;5007071;28;20185;-48
2023/09/26 07:43:45;;;;;;;3.35;2.50;;;;;;;;;;5005878;28;20199;-47
2023/09/26 07:46:11;;;;;;;2.25;2.05;;;;;;;;;;5011440;28;20219;-47
2023/09/26 07:48:37;;;;;;;2.67;2.15;;;;;;;;;;5011224;28;20225;-48
2023/09/26 07:51:07;;;;;;;4.13;2.67;;;;;;;;;;5007620;28;20189;-47
2023/09/26 07:53:33;;;;;;;3.60;2.42;;;;;;;;;;4997979;28;20181;-47
2023/09/26 07:55:59;;;;;;;2.40;2.17;;;;;;;;;;5006381;28;20217;-47
2023/09/26 07:58:26;;;;;;;2.80;2.50;;;;;;;;;;5010494;28;20185;-47
2023/09/26 08:00:58;;;;;;;2.47;2.00;;;;;;;;;;5006888;28;20296;-47
2023/09/26 08:03:24;;;;;;;3.58;2.20;;;;;;;;;;5005332;28;20174;-48
2023/09/26 08:05:50;;;;;;;4.38;2.42;;;;;;;;;;5002140;28;20247;-47
2023/09/26 08:08:16;;;;;;;2.67;2.47;;;;;;;;;;5006227;28;20580;-47
2023/09/26 08:10:42;;;;;;;2.17;1.92;;;;;;;;;;5011372;28;20193;-47
2023/09/26 08:13:08;;;;;;;2.45;2.25;;;;;;;;;;5006278;28;20253;-47
2023/09/26 08:15:37;;;;;;;3.08;2.20;;;;;;;;;;4998218;28;20224;-47
2023/09/26 08:18:03;;;;;;;2.60;2.40;;;;;;;;;;5014097;28;20245;-47
2023/09/26 08:20:29;;;;;;;2.72;2.00;;;;;;;;;;5008286;28;20181;-47
2023/09/26 08:22:55;;;;;;;3.15;2.38;;;;;;;;;;5000784;28;20193;-47
2023/09/26 08:25:21;;;;;;;2.90;2.25;;;;;;;;;;4987140;28;20185;-47
2023/09/26 08:27:47;;;;;;;3.10;2.10;;;;;;;;;;4996815;28;20348;-47
2023/09/26 08:30:13;;;;;;;3.10;2.20;;;;;;;;;;4994326;28;20185;-47
2023/09/26 08:32:40;;;;;;;3.15;2.83;;;;;;;;;;5002392;28;20186;-47
2023/09/26 08:35:06;;;;;;;4.30;2.95;;;;;;;;;;4996367;28;20219;-48
2023/09/26 08:37:33;;;;;;;4.35;2.90;;;;;;;;;;5006547;28;20191;-47
2023/09/26 08:40:00;;;;;;;4.00;3.33;;;;;;;;;;4993987;28;20557;-47
2023/09/26 08:42:30;;;;;;;3.80;2.50;;;;;;;;;;5002611;28;20186;-46
2023/09/26 08:44:56;;;;;;;2.97;2.40;;;;;;;;;;5006218;28;20196;-47
2023/09/26 08:47:27;;;;;;;2.80;2.47;;;;;;;;;;5008566;28;20591;-47
2023/09/26 08:49:54;;;;;;;2.50;2.30;;;;;;;;;;4995754;28;20469;-47
2023/09/26 08:52:21;;;;;;;2.60;2.30;;;;;;;;;;4995678;28;20204;-47
2023/09/26 08:54:46;;;;;;;10.45;2.78;;;;;;;;;;5008196;28;20213;-47
2023/09/26 08:57:13;;;;;;;4.20;2.53;;;;;;;;;;4998818;28;20556;-47
2023/09/26 08:59:39;;;;;;;5.85;3.20;;;;;;;;;;5004322;28;20280;-47
2023/09/26 09:02:05;;;;;;;2.97;2.67;;;;;;;;;;4980865;28;20181;-47
2023/09/26 09:04:32;;;;;;;2.83;2.60;;;;;;;;;;5003713;28;20209;-47
2023/09/26 09:07:04;;;;;;;4.03;3.10;;;;;;;;;;5001250;28;20185;-47
2023/09/26 09:09:30;;;;;;;3.50;2.72;;;;;;;;;;5007227;28;20192;-48
2023/09/26 09:11:56;;;;;;;3.35;3.05;;;;;;;;;;4990078;28;20189;-47
2023/09/26 09:14:32;;;;;;;3.80;2.75;;;;;;;;;;5001574;28;20274;-47
2023/09/26 09:16:59;;;;;;;4.72;3.30;;;;;;;;;;4997443;28;20219;-48
2023/09/26 09:19:44;;;;;;;3.33;2.92;;;;;;;;;;5004720;28;20236;-47
2023/09/26 09:22:17;;;;;;;3.70;2.80;;;;;;;;;;5000562;28;20283;-47
2023/09/26 09:24:43;;;;;;;3.75;3.13;;;;;;;;;;5007929;28;20220;-47
2023/09/26 09:27:10;;;;;;;7.10;3.15;;;;;;;;;;4999803;28;20208;-48
2023/09/26 09:29:36;;;;;;;5.85;3.15;;;;;;;;;;5011544;28;20576;-47
2023/09/26 09:32:02;;;;;;;4.00;3.22;;;;;;;;;;4999775;28;20264;-48
2023/09/26 09:34:28;;;;;;;7.47;3.15;;;;;;;;;;5004474;28;20270;-48
2023/09/26 09:36:56;;;;;;;4.82;2.83;;;;;;;;;;5008872;28;20185;-47
2023/09/26 09:39:22;;;;;;;4.78;4.00;;;;;;;;;;5012908;28;20180;-48
2023/09/26 09:41:49;;;;;;;5.70;3.33;;;;;;;;;;5001446;28;20181;-48
2023/09/26 09:44:15;;;;;;;6.22;3.63;;;;;;;;;;4998511;28;20192;-47
2023/09/26 09:46:43;;;;;;;4.85;4.22;;;;;;;;;;5005803;28;20209;-47
2023/09/26 09:49:11;;;;;;;7.47;4.55;;;;;;;;;;4997470;28;20184;-47
2023/09/26 09:51:42;;;;;;;5.10;4.28;;;;;;;;;;5002723;28;20182;-47
2023/09/26 09:54:12;;;;;;;7.72;4.35;;;;;;;;;;5006917;28;20191;-47
2023/09/26 09:56:39;;;;;;;6.88;3.83;;;;;;;;;;5011610;28;20189;-47
2023/09/26 09:59:12;;;;;;;6.40;3.92;;;;;;;;;;5008182;28;20189;-47
2023/09/26 10:01:39;;;;;;;5.53;3.85;;;;;;;;;;5000579;28;20174;-47
2023/09/26 10:04:05;;;;;;;4.05;3.60;;;;;;;;;;4994512;28;20181;-47
2023/09/26 10:06:32;;;;;;;4.32;3.50;;;;;;;;;;5008755;28;20185;-47
2023/09/26 10:08:58;;;;;;;4.65;3.70;;;;;;;;;;5003987;28;20189;-47
2023/09/26 10:11:25;;;;;;;5.18;3.88;;;;;;;;;;5003156;28;20174;-47
2023/09/26 10:13:52;;;;;;;5.07;3.05;;;;;;;;;;5001275;28;20173;-47
2023/09/26 10:16:19;;;;;;;4.75;3.53;;;;;;;;;;5001005;28;20215;-47
2023/09/26 10:18:46;;;;;;;4.80;4.00;;;;;;;;;;5003736;28;20443;-48
2023/09/26 10:21:28;;;;;;;4.63;3.63;;;;;;;;;;4996166;28;20181;-47
2023/09/26 10:24:06;;;;;;;4.10;3.58;;;;;;;;;;4986791;28;20198;-47
2023/09/26 10:26:37;;;;;;;5.13;3.58;;;;;;;;;;4995736;28;20505;-47
2023/09/26 10:29:12;;;;;;;4.65;3.40;;;;;;;;;;5007608;28;20266;-47
2023/09/26 10:31:53;;;;;;;5.32;3.55;;;;;;;;;;5006082;28;20180;-48
2023/09/26 10:34:29;;;;;;;4.85;3.90;;;;;;;;;;4997689;28;20187;-48
2023/09/26 10:36:56;;;;;;;6.50;4.00;;;;;;;;;;4986559;28;20227;-47
2023/09/26 10:39:38;;;;;;;4.32;3.92;;;;;;;;;;4998729;28;20514;-47
2023/09/26 10:42:14;;;;;;;5.40;3.83;;;;;;;;;;4987129;28;20223;-47
2023/09/26 10:44:43;;;;;;;5.70;3.28;;;;;;;;;;4989951;28;20193;-47
2023/09/26 10:47:12;;;;;;;4.85;3.85;;;;;;;;;;4991423;28;20247;-48
2023/09/26 10:49:38;;;;;;;4.78;3.17;;;;;;;;;;4999723;28;20573;-47
2023/09/26 10:52:07;;;;;;;4.13;3.03;;;;;;;;;;5000109;28;20213;-48
2023/09/26 10:54:34;;;;;;;4.45;3.50;;;;;;;;;;4996283;28;20209;-47
2023/09/26 10:57:00;;;;;;;3.60;3.30;;;;;;;;;;4994464;28;20204;-47
2023/09/26 10:59:27;;;;;;;5.22;3.50;;;;;;;;;;4998749;28;20199;-47
2023/09/26 11:02:04;;;;;;;5.05;3.60;;;;;;;;;;5004424;28;20185;-47
2023/09/26 11:04:32;;;;;;;4.65;3.72;;;;;;;;;;4991886;28;20178;-48
2023/09/26 11:06:59;;;;;;;4.63;3.65;;;;;;;;;;5005151;28;20274;-47
2023/09/26 11:09:26;;;;;;;3.78;3.30;;;;;;;;;;5009627;28;20203;-47
2023/09/26 11:11:55;;;;;;;6.20;3.85;;;;;;;;;;5000446;28;20579;-47
2023/09/26 11:14:21;;;;;;;4.80;3.40;;;;;;;;;;5002913;28;20421;-48
2023/09/26 11:16:47;;;;;;;4.55;3.70;;;;;;;;;;5001537;28;20196;-47
2023/09/26 11:19:13;;;;;;;4.03;3.40;;;;;;;;;;5006518;28;20184;-48
2023/09/26 11:21:39;;;;;;;4.18;3.50;;;;;;;;;;5011161;28;20187;-46
2023/09/26 11:24:37;;;;;;;5.30;3.67;;;;;;;;;;4987522;28;20569;-47
2023/09/26 11:27:04;;;;;;;6.80;3.78;;;;;;;;;;4966395;28;20203;-49
2023/09/26 11:29:34;;;;;;;14.25;4.22;;;;;;;;;;5001347;28;20259;-47
2023/09/26 11:32:00;;;;;;;11.30;4.38;;;;;;;;;;5007016;28;20271;-47
2023/09/26 11:34:26;;;;;;;6.53;4.90;;;;;;;;;;4999885;28;20204;-47
2023/09/26 11:36:52;;;;;;;6.90;4.35;;;;;;;;;;5005860;28;20185;-47
2023/09/26 11:39:22;;;;;;;17.50;5.43;;;;;;;;;;5004112;28;20223;-47
2023/09/26 11:42:02;;;;;;;6.63;4.85;;;;;;;;;;5001578;28;20188;-47
2023/09/26 11:44:28;;;;;;;9.00;4.35;;;;;;;;;;4983058;28;20189;-47
2023/09/26 11:46:54;;;;;;;7.18;4.30;;;;;;;;;;4989154;28;20521;-47
2023/09/26 11:49:20;;;;;;;8.35;4.90;;;;;;;;;;4993812;28;20193;-47
2023/09/26 11:51:48;;;;;;;7.13;4.60;;;;;;;;;;4994188;28;20241;-47
2023/09/26 11:54:14;;;;;;;6.18;4.50;;;;;;;;;;4987415;28;20198;-47
2023/09/26 11:56:46;;;;;;;8.55;4.60;;;;;;;;;;4988000;28;20552;-48
2023/09/26 11:59:13;;;;;;;4.60;3.65;;;;;;;;;;4998772;28;20191;-47
2023/09/26 12:01:42;;;;;;;7.18;4.22;;;;;;;;;;5005878;28;20587;-47
2023/09/26 12:04:12;;;;;;;6.13;3.92;;;;;;;;;;4984855;28;20231;-47
2023/09/26 12:06:41;;;;;;;7.35;4.28;;;;;;;;;;5003514;28;20239;-47
2023/09/26 12:09:12;;;;;;;7.70;4.47;;;;;;;;;;4983838;28;20188;-45
2023/09/26 12:11:38;;;;;;;9.88;4.43;;;;;;;;;;4988402;28;20464;-45
2023/09/26 12:14:04;;;;;;;8.98;5.10;;;;;;;;;;4991201;28;20182;-46
2023/09/26 12:16:31;;;;;;;8.48;4.40;;;;;;;;;;4986581;28;20229;-45
2023/09/26 12:18:57;;;;;;;7.80;4.82;;;;;;;;;;4989152;28;20228;-46
2023/09/26 12:21:23;;;;;;;6.45;4.85;;;;;;;;;;4990902;28;20205;-46
2023/09/26 12:23:49;;;;;;;6.93;4.43;;;;;;;;;;4998325;28;20197;-45
2023/09/26 12:26:15;;;;;;;7.85;5.57;;;;;;;;;;4990608;28;20220;-45
2023/09/26 12:28:42;;;;;;;5.47;4.68;;;;;;;;;;4997079;28;20524;-45
2023/09/26 12:31:08;;;;;;;6.15;4.20;;;;;;;;;;4986548;28;20219;-45
2023/09/26 12:33:34;;;;;;;5.85;4.45;;;;;;;;;;5002088;28;20204;-46
2023/09/26 12:36:00;;;;;;;8.18;4.72;;;;;;;;;;4996545;28;20212;-46
2023/09/26 12:38:26;;;;;;;7.75;4.32;;;;;;;;;;4995152;28;20469;-45
2023/09/26 12:40:52;;;;;;;7.43;4.45;;;;;;;;;;4996104;28;20186;-46
2023/09/26 12:43:18;;;;;;;6.80;4.50;;;;;;;;;;5003235;28;20185;-46
2023/09/26 12:45:44;;;;;;;6.70;4.45;;;;;;;;;;5000710;28;20268;-46
2023/09/26 12:48:10;;;;;;;6.38;4.38;;;;;;;;;;4997121;28;20269;-45
2023/09/26 12:50:36;;;;;;;7.00;4.25;;;;;;;;;;4982925;28;20304;-45
2023/09/26 12:53:02;;;;;;;6.18;4.72;;;;;;;;;;4991386;28;20213;-45
2023/09/26 12:55:28;;;;;;;9.00;4.50;;;;;;;;;;5004716;28;20217;-45
2023/09/26 12:57:54;;;;;;;6.32;4.50;;;;;;;;;;5004363;28;20181;-46
2023/09/26 13:00:20;;;;;;;8.60;4.88;;;;;;;;;;5002565;28;20211;-51
2023/09/26 13:02:47;;;;;;;12.80;4.63;;;;;;;;;;4998239;28;20485;-51
2023/09/26 13:05:13;;;;;;;6.28;4.82;;;;;;;;;;5004210;28;20189;-51
2023/09/26 13:07:39;;;;;;;6.90;5.13;;;;;;;;;;5008717;28;20184;-52
2023/09/26 13:10:05;;;;;;;7.95;4.72;;;;;;;;;;4995274;28;20425;-52
2023/09/26 13:12:31;;;;;;;6.03;4.13;;;;;;;;;;5003150;28;20187;-52
2023/09/26 13:14:57;;;;;;;7.03;4.53;;;;;;;;;;4996221;28;20213;-52
2023/09/26 13:17:23;;;;;;;10.05;5.00;;;;;;;;;;5004678;28;20173;-52
2023/09/26 13:19:49;;;;;;;9.75;4.60;;;;;;;;;;5001847;28;20711;-52
2023/09/26 13:22:15;;;;;;;8.23;4.38;;;;;;;;;;4996922;28;20886;-52
2023/09/26 13:24:41;;;;;;;8.07;4.68;;;;;;;;;;5001609;28;20260;-52
2023/09/26 13:27:07;;;;;;;7.80;5.03;;;;;;;;;;5014387;28;20223;-52
2023/09/26 13:29:34;;;;;;;6.45;4.60;;;;;;;;;;4997871;28;20558;-52
2023/09/26 13:32:00;;;;;;;10.43;4.88;;;;;;;;;;5001867;28;20189;-51
2023/09/26 13:34:26;;;;;;;12.85;5.20;;;;;;;;;;5006496;28;20204;-51
2023/09/26 13:36:52;;;;;;;10.40;5.28;;;;;;;;;;5004171;28;20189;-51
2023/09/26 13:39:19;;;;;;;10.55;5.05;;;;;;;;;;5004720;28;20185;-52
2023/09/26 13:41:45;;;;;;;11.23;5.43;;;;;;;;;;4994889;28;20169;-52
2023/09/26 13:44:11;;;;;;;9.98;5.18;;;;;;;;;;4991212;28;20181;-52
2023/09/26 13:46:37;;;;;;;8.60;4.85;;;;;;;;;;5000408;28;20521;-52
2023/09/26 13:49:04;;;;;;;7.63;5.25;;;;;;;;;;4994295;28;20265;-52
2023/09/26 13:51:30;;;;;;;5.68;4.43;;;;;;;;;;4994529;28;20876;-52
2023/09/26 13:53:57;;;;;;;6.90;4.32;;;;;;;;;;5011724;28;20196;-52
2023/09/26 13:56:22;;;;;;;7.35;5.18;;;;;;;;;;5000863;28;20487;-52
2023/09/26 13:58:49;;;;;;;9.65;5.40;;;;;;;;;;4992832;28;20184;-52
2023/09/26 14:01:15;;;;;;;6.00;5.13;;;;;;;;;;5002303;28;20172;-52
2023/09/26 14:03:42;;;;;;;7.88;5.15;;;;;;;;;;4997767;28;20184;-52
2023/09/26 14:06:08;;;;;;;10.00;4.97;;;;;;;;;;4982006;28;20189;-52
2023/09/26 14:08:34;;;;;;;7.05;4.88;;;;;;;;;;4990934;28;20189;-52
2023/09/26 14:11:00;;;;;;;6.47;4.93;;;;;;;;;;4989262;28;20572;-52
2023/09/26 14:13:26;;;;;;;11.27;5.32;;;;;;;;;;4995863;28;20190;-52
2023/09/26 14:15:52;;;;;;;7.18;5.00;;;;;;;;;;4995876;28;20484;-52
2023/09/26 14:18:19;;;;;;;9.82;4.60;;;;;;;;;;5003280;28;20192;-52
2023/09/26 14:20:47;;;;;;;7.75;4.60;;;;;;;;;;4993547;28;20189;-52
2023/09/26 14:23:13;;;;;;;6.50;4.63;;;;;;;;;;4994928;28;20181;-52
2023/09/26 14:25:39;;;;;;;9.48;5.07;;;;;;;;;;4993246;28;20293;-52
2023/09/26 14:28:05;;;;;;;8.30;4.93;;;;;;;;;;4994650;28;20236;-52
2023/09/26 14:30:31;;;;;;;5.22;4.10;;;;;;;;;;4995229;28;20192;-52
2023/09/26 14:32:57;;;;;;;9.93;4.47;;;;;;;;;;5003592;28;20184;-52
2023/09/26 14:35:23;;;;;;;7.78;4.65;;;;;;;;;;5007852;28;20890;-52
2023/09/26 14:37:49;;;;;;;6.28;4.63;;;;;;;;;;4993450;28;20209;-52
2023/09/26 14:40:16;;;;;;;7.00;4.55;;;;;;;;;;4994571;28;20216;-52
2023/09/26 14:42:42;;;;;;;7.05;4.75;;;;;;;;;;4997922;28;20170;-53